createdAt,value
2023-10-28T00:02:04.206Z,12.86
2023-10-28T00:04:33.196Z,12.70
2023-10-28T00:07:00.802Z,13.00
2023-10-28T00:09:28.426Z,13.31
2023-10-28T00:11:56.429Z,12.50
2023-10-28T00:14:24.396Z,12.82
2023-10-28T00:16:52.011Z,12.95
2023-10-28T00:19:20.746Z,13.08
2023-10-28T00:21:48.279Z,13.02
2023-10-28T00:24:15.692Z,13.06
2023-10-28T00:26:43.799Z,13.00
2023-10-28T00:29:13.055Z,13.27
2023-10-28T00:31:40.544Z,12.91
2023-10-28T00:34:10.089Z,13.08
2023-10-28T00:36:37.563Z,12.83
2023-10-28T00:39:05.115Z,13.00
2023-10-28T00:41:33.386Z,13.12
2023-10-28T00:44:00.797Z,13.21
2023-10-28T00:46:29.540Z,13.37
2023-10-28T00:48:57.230Z,13.25
2023-10-28T00:51:24.721Z,12.87
2023-10-28T00:53:52.676Z,12.96
2023-10-28T00:56:20.597Z,13.11
2023-10-28T00:58:48.413Z,13.36
2023-10-28T01:01:16.022Z,13.39
2023-10-28T01:03:43.740Z,13.20
2023-10-28T01:06:11.627Z,13.22
2023-10-28T01:08:39.938Z,13.03
2023-10-28T01:11:07.766Z,12.92
2023-10-28T01:13:35.273Z,12.94
2023-10-28T01:16:02.816Z,12.97
2023-10-28T01:18:30.786Z,12.88
2023-10-28T01:20:58.530Z,13.08
2023-10-28T01:23:25.981Z,13.07
2023-10-28T01:25:57.202Z,13.21
2023-10-28T01:28:24.665Z,12.88
2023-10-28T01:30:53.472Z,13.02
2023-10-28T01:33:22.757Z,12.88
2023-10-28T01:35:50.170Z,12.87
2023-10-28T01:38:17.624Z,12.90
2023-10-28T01:40:45.403Z,12.96
2023-10-28T01:43:12.983Z,13.14
2023-10-28T01:45:41.261Z,13.13
2023-10-28T01:48:09.068Z,13.18
2023-10-28T01:50:36.477Z,13.14
2023-10-28T01:53:05.597Z,13.11
2023-10-28T01:55:33.614Z,13.09
2023-10-28T01:58:01.773Z,13.05
2023-10-28T02:00:31.585Z,13.13
2023-10-28T02:03:01.279Z,13.12
2023-10-28T02:05:30.904Z,13.24
2023-10-28T02:07:58.651Z,13.28
2023-10-28T02:10:27.312Z,13.37
2023-10-28T02:12:54.723Z,13.35
2023-10-28T02:15:22.458Z,13.30
2023-10-28T02:17:49.998Z,13.23
2023-10-28T02:20:17.732Z,13.40
2023-10-28T02:22:46.013Z,13.36
2023-10-28T02:25:15.333Z,13.25
2023-10-28T02:27:42.762Z,13.18
2023-10-28T02:30:11.277Z,13.10
2023-10-28T02:32:38.750Z,13.00
2023-10-28T02:35:06.983Z,13.09
2023-10-28T02:37:34.701Z,12.95
2023-10-28T02:40:02.386Z,12.98
2023-10-28T02:42:29.893Z,12.96
2023-10-28T02:44:57.561Z,12.95
2023-10-28T02:47:24.982Z,12.98
2023-10-28T02:49:52.433Z,12.87
2023-10-28T02:52:20.291Z,12.92
2023-10-28T02:54:47.740Z,12.74
2023-10-28T02:57:15.127Z,12.78
2023-10-28T02:59:42.828Z,12.82
2023-10-28T03:02:10.362Z,12.85
2023-10-28T03:04:37.968Z,12.89
2023-10-28T03:07:05.751Z,12.86
2023-10-28T03:09:33.212Z,12.87
2023-10-28T03:12:00.895Z,12.88
2023-10-28T03:14:28.604Z,12.79
2023-10-28T03:16:56.151Z,12.79
2023-10-28T03:19:23.711Z,12.79
2023-10-28T03:21:51.383Z,12.86
2023-10-28T03:24:18.810Z,12.83
2023-10-28T03:26:46.283Z,12.91
2023-10-28T03:29:14.035Z,12.82
2023-10-28T03:31:41.564Z,12.95
2023-10-28T03:34:09.034Z,12.91
2023-10-28T03:36:36.694Z,12.99
2023-10-28T03:39:04.227Z,13.00
2023-10-28T03:41:33.833Z,12.89
2023-10-28T03:44:02.496Z,12.97
2023-10-28T03:46:29.987Z,13.06
2023-10-28T03:48:57.368Z,12.84
2023-10-28T03:51:25.072Z,13.00
2023-10-28T03:53:52.449Z,12.93
2023-10-28T03:56:19.849Z,13.01
2023-10-28T03:58:47.674Z,13.06
2023-10-28T04:01:17.185Z,12.91
2023-10-28T04:03:44.964Z,12.98
2023-10-28T04:06:13.417Z,12.89
2023-10-28T04:08:40.920Z,12.78
2023-10-28T04:11:10.389Z,12.85
2023-10-28T04:13:37.825Z,12.77
2023-10-28T04:16:05.397Z,12.76
2023-10-28T04:18:33.125Z,12.82
2023-10-28T04:21:00.603Z,12.83
2023-10-28T04:23:28.038Z,12.52
2023-10-28T04:25:55.778Z,12.46
2023-10-28T04:28:23.258Z,12.59
2023-10-28T04:31:00.214Z,12.58
2023-10-28T04:33:27.978Z,12.53
2023-10-28T04:35:55.508Z,12.57
2023-10-28T04:38:23.355Z,12.55
2023-10-28T04:40:51.429Z,12.56
2023-10-28T04:43:20.964Z,12.48
2023-10-28T04:45:49.514Z,12.63
2023-10-28T04:48:17.319Z,12.61
2023-10-28T04:50:46.476Z,12.59
2023-10-28T04:53:13.923Z,12.55
2023-10-28T04:55:42.897Z,12.57
2023-10-28T04:58:10.325Z,12.47
2023-10-28T05:00:37.839Z,12.22
2023-10-28T05:03:06.045Z,12.28
2023-10-28T05:05:33.489Z,12.41
2023-10-28T05:08:01.049Z,12.36
2023-10-28T05:10:31.519Z,11.80
2023-10-28T05:13:00.668Z,12.03
2023-10-28T05:15:30.011Z,12.00
2023-10-28T05:17:57.939Z,12.23
2023-10-28T05:20:25.998Z,12.31
2023-10-28T05:22:53.669Z,12.34
2023-10-28T05:25:21.680Z,12.38
2023-10-28T05:27:50.290Z,12.47
2023-10-28T05:30:17.803Z,12.37
2023-10-28T05:32:45.741Z,12.35
2023-10-28T05:35:14.444Z,12.36
2023-10-28T05:37:42.028Z,12.31
2023-10-28T05:40:11.445Z,12.19
2023-10-28T05:42:39.085Z,12.08
2023-10-28T05:45:08.976Z,12.00
2023-10-28T05:47:36.744Z,12.12
2023-10-28T05:50:07.246Z,12.21
2023-10-28T05:52:35.766Z,12.14
2023-10-28T05:55:04.398Z,12.02
2023-10-28T05:57:31.983Z,12.02
2023-10-28T05:59:59.440Z,11.89
2023-10-28T06:02:27.166Z,12.24
2023-10-28T06:04:54.894Z,12.31
2023-10-28T06:07:22.325Z,12.46
2023-10-28T06:09:49.756Z,12.44
2023-10-28T06:12:17.449Z,12.62
2023-10-28T06:14:45.029Z,12.86
2023-10-28T06:17:12.567Z,12.52
2023-10-28T06:19:43.710Z,12.67
2023-10-28T06:22:12.880Z,12.66
2023-10-28T06:24:40.794Z,12.76
2023-10-28T06:27:09.682Z,12.72
2023-10-28T06:29:37.278Z,12.93
2023-10-28T06:32:07.613Z,12.86
2023-10-28T06:34:35.094Z,12.84
2023-10-28T06:37:02.690Z,13.09
2023-10-28T06:39:34.327Z,13.31
2023-10-28T06:42:02.700Z,13.05
2023-10-28T06:44:33.140Z,13.29
2023-10-28T06:47:00.584Z,13.28
2023-10-28T06:49:27.981Z,13.39
2023-10-28T06:51:55.670Z,13.33
2023-10-28T06:54:23.099Z,13.34
2023-10-28T06:56:50.545Z,13.38
2023-10-28T06:59:18.537Z,13.28
2023-10-28T07:01:46.119Z,13.17
2023-10-28T07:04:13.709Z,12.90
2023-10-28T07:06:41.743Z,13.05
2023-10-28T07:09:09.153Z,12.99
2023-10-28T07:11:36.609Z,13.18
2023-10-28T07:14:04.370Z,13.18
2023-10-28T07:16:32.168Z,13.01
2023-10-28T07:18:59.626Z,13.34
2023-10-28T07:21:27.403Z,13.66
2023-10-28T07:23:55.474Z,13.74
2023-10-28T07:26:24.085Z,13.77
2023-10-28T07:28:51.938Z,13.99
2023-10-28T07:31:19.389Z,14.00
2023-10-28T07:33:48.031Z,13.92
2023-10-28T07:36:15.711Z,13.62
2023-10-28T07:38:43.176Z,13.73
2023-10-28T07:41:10.737Z,13.52
2023-10-28T07:43:38.517Z,13.56
2023-10-28T07:46:06.175Z,13.79
2023-10-28T07:48:33.590Z,13.97
2023-10-28T07:51:01.277Z,13.87
2023-10-28T07:53:30.129Z,13.69
2023-10-28T07:55:57.727Z,13.76
2023-10-28T07:58:25.433Z,14.12
2023-10-28T08:00:52.860Z,14.23
2023-10-28T08:03:20.642Z,14.29
2023-10-28T08:05:48.189Z,14.33
2023-10-28T08:08:15.660Z,14.40
2023-10-28T08:10:43.396Z,14.44
2023-10-28T08:13:10.754Z,14.58
2023-10-28T08:15:38.195Z,14.64
2023-10-28T08:18:05.994Z,14.86
2023-10-28T08:20:34.062Z,14.82
2023-10-28T08:23:01.503Z,15.04
2023-10-28T08:25:29.293Z,15.22
2023-10-28T08:27:56.701Z,15.13
2023-10-28T08:30:24.810Z,15.21
2023-10-28T08:32:53.924Z,15.38
2023-10-28T08:35:21.608Z,15.43
2023-10-28T08:37:49.179Z,15.70
2023-10-28T08:40:17.101Z,15.84
2023-10-28T08:42:45.550Z,16.07
2023-10-28T08:45:14.868Z,16.13
2023-10-28T08:47:43.765Z,16.28
2023-10-28T08:50:12.170Z,16.12
2023-10-28T08:52:41.118Z,16.21
2023-10-28T08:55:12.129Z,16.40
2023-10-28T08:57:45.625Z,16.51
2023-10-28T09:00:18.454Z,16.47
2023-10-28T09:02:47.853Z,16.36
2023-10-28T09:05:16.103Z,16.68
2023-10-28T09:07:47.041Z,16.29
2023-10-28T09:10:17.146Z,16.53
2023-10-28T09:12:45.477Z,16.83
2023-10-28T09:15:13.078Z,16.83
2023-10-28T09:17:41.527Z,16.65
2023-10-28T09:20:13.319Z,16.75
2023-10-28T09:22:45.111Z,16.64
2023-10-28T09:25:15.650Z,16.45
2023-10-28T09:27:44.689Z,16.62
2023-10-28T09:30:12.815Z,16.68
2023-10-28T09:32:40.655Z,16.79
2023-10-28T09:35:09.884Z,16.58
2023-10-28T09:37:39.019Z,16.63
2023-10-28T09:40:08.288Z,16.67
2023-10-28T09:42:39.475Z,16.57
2023-10-28T09:45:09.660Z,16.57
2023-10-28T09:47:49.533Z,16.83
2023-10-28T09:50:19.049Z,16.71
2023-10-28T09:52:47.101Z,16.80
2023-10-28T09:55:16.296Z,16.60
2023-10-28T09:57:44.800Z,16.77
2023-10-28T10:00:21.875Z,16.92
2023-10-28T10:03:13.654Z,17.33
2023-10-28T10:05:44.248Z,17.29
2023-10-28T10:08:19.484Z,17.16
2023-10-28T10:10:48.570Z,17.09
2023-10-28T10:13:16.724Z,17.03
2023-10-28T10:15:56.642Z,16.75
2023-10-28T10:18:40.057Z,16.97
2023-10-28T10:21:20.089Z,16.80
2023-10-28T10:23:55.610Z,17.14
2023-10-28T10:26:27.422Z,16.70
2023-10-28T10:29:02.356Z,16.67
2023-10-28T10:31:32.364Z,16.72
2023-10-28T10:34:10.698Z,16.62
2023-10-28T10:36:46.198Z,16.65
2023-10-28T10:39:17.389Z,16.47
2023-10-28T10:41:54.573Z,16.64
2023-10-28T10:44:35.697Z,16.96
2023-10-28T10:47:04.619Z,17.59
2023-10-28T10:49:36.245Z,17.74
2023-10-28T10:52:04.720Z,17.66
2023-10-28T10:54:37.952Z,17.56
2023-10-28T10:57:09.640Z,17.70
2023-10-28T10:59:41.634Z,17.65
2023-10-28T11:02:11.880Z,17.35
2023-10-28T11:04:43.297Z,17.45
2023-10-28T11:07:11.140Z,17.83
2023-10-28T11:09:39.393Z,17.68
2023-10-28T11:12:07.653Z,18.03
2023-10-28T11:14:35.137Z,18.14
2023-10-28T11:17:02.562Z,18.07
2023-10-28T11:19:30.339Z,17.94
2023-10-28T11:21:57.838Z,17.84
2023-10-28T11:24:25.415Z,17.93
2023-10-28T11:26:56.323Z,18.13
2023-10-28T11:29:24.469Z,18.27
2023-10-28T11:31:51.943Z,18.30
2023-10-28T11:34:19.637Z,18.15
2023-10-28T11:36:47.065Z,17.80
2023-10-28T11:39:16.488Z,18.01
2023-10-28T11:41:45.263Z,18.02
2023-10-28T11:44:13.077Z,18.13
2023-10-28T11:46:40.568Z,18.16
2023-10-28T11:49:09.289Z,18.04
2023-10-28T11:51:36.987Z,17.74
2023-10-28T11:54:05.200Z,17.76
2023-10-28T11:56:34.468Z,17.70
2023-10-28T11:59:02.843Z,17.88
2023-10-28T12:01:33.452Z,18.27
2023-10-28T12:04:03.208Z,18.08
2023-10-28T12:06:34.559Z,18.20
2023-10-28T12:09:06.158Z,18.07
2023-10-28T12:11:33.692Z,18.01
2023-10-28T12:14:01.099Z,18.10
2023-10-28T12:16:30.387Z,18.23
2023-10-28T12:18:58.195Z,17.87
2023-10-28T12:21:26.707Z,17.99
2023-10-28T12:23:54.422Z,17.66
2023-10-28T12:26:22.025Z,18.15
2023-10-28T12:28:49.872Z,17.81
2023-10-28T12:31:17.861Z,17.78
2023-10-28T12:33:45.391Z,17.90
2023-10-28T12:36:12.920Z,17.80
2023-10-28T12:38:40.643Z,17.70
2023-10-28T12:41:08.111Z,17.92
2023-10-28T12:43:36.278Z,17.90
2023-10-28T12:46:04.967Z,17.80
2023-10-28T12:48:32.963Z,17.85
2023-10-28T12:51:00.915Z,17.84
2023-10-28T12:53:30.310Z,17.80
2023-10-28T12:55:58.201Z,17.85
2023-10-28T12:58:27.374Z,18.02
2023-10-28T13:00:55.232Z,18.05
2023-10-28T13:03:22.778Z,18.13
2023-10-28T13:05:50.267Z,18.24
2023-10-28T13:08:17.979Z,18.47
2023-10-28T13:10:45.393Z,18.45
2023-10-28T13:13:12.797Z,18.58
2023-10-28T13:15:41.274Z,17.88
2023-10-28T13:18:08.799Z,17.89
2023-10-28T13:20:36.278Z,17.79
2023-10-28T13:23:03.971Z,17.32
2023-10-28T13:25:31.423Z,17.27
2023-10-28T13:27:58.910Z,17.25
2023-10-28T13:30:26.643Z,17.37
2023-10-28T13:32:56.899Z,17.52
2023-10-28T13:35:27.775Z,17.60
2023-10-28T13:37:55.506Z,17.64
2023-10-28T13:40:22.945Z,17.41
2023-10-28T13:42:50.384Z,17.72
2023-10-28T13:45:18.128Z,17.55
2023-10-28T13:47:45.624Z,17.46
2023-10-28T13:50:13.672Z,17.36
2023-10-28T13:52:46.633Z,17.36
2023-10-28T13:55:15.909Z,17.33
2023-10-28T13:57:45.148Z,17.24
2023-10-28T14:00:14.341Z,17.35
2023-10-28T14:02:42.752Z,17.35
2023-10-28T14:05:10.588Z,17.03
2023-10-28T14:07:38.554Z,17.12
2023-10-28T14:10:08.235Z,17.12
2023-10-28T14:12:35.911Z,16.81
2023-10-28T14:15:04.709Z,16.75
2023-10-28T14:17:32.510Z,17.01
2023-10-28T14:20:01.189Z,17.25
2023-10-28T14:22:30.120Z,17.09
2023-10-28T14:24:57.798Z,17.10
2023-10-28T14:27:25.236Z,17.24
2023-10-28T14:29:53.345Z,17.02
2023-10-28T14:32:21.031Z,17.16
2023-10-28T14:34:49.571Z,17.13
2023-10-28T14:37:17.243Z,17.06
2023-10-28T14:39:46.144Z,16.99
2023-10-28T14:42:13.923Z,16.87
2023-10-28T14:44:45.546Z,16.98
2023-10-28T14:47:13.310Z,17.13
2023-10-28T14:49:40.783Z,17.13
2023-10-28T14:52:08.223Z,16.92
2023-10-28T14:54:35.931Z,17.02
2023-10-28T14:57:04.220Z,17.10
2023-10-28T14:59:45.672Z,16.92
2023-10-28T15:02:19.014Z,16.81
2023-10-28T15:04:48.860Z,16.79
2023-10-28T15:07:17.612Z,16.64
2023-10-28T15:09:48.287Z,16.62
2023-10-28T15:12:16.624Z,16.52
2023-10-28T15:14:44.742Z,16.44
2023-10-28T15:17:12.397Z,16.49
2023-10-28T15:19:39.908Z,16.40
2023-10-28T15:22:07.621Z,16.26
2023-10-28T15:24:35.122Z,16.24
2023-10-28T15:27:02.812Z,16.10
2023-10-28T15:29:30.561Z,16.07
2023-10-28T15:31:57.981Z,15.97
2023-10-28T15:34:25.551Z,15.91
2023-10-28T15:36:53.220Z,15.92
2023-10-28T15:39:20.594Z,15.92
2023-10-28T15:41:49.265Z,15.85
2023-10-28T15:44:17.182Z,15.62
2023-10-28T15:46:44.769Z,15.70
2023-10-28T15:49:12.528Z,15.55
2023-10-28T15:51:40.295Z,15.58
2023-10-28T15:54:07.910Z,15.55
2023-10-28T15:56:36.513Z,15.55
2023-10-28T15:59:06.440Z,15.61
2023-10-28T16:01:34.122Z,15.57
2023-10-28T16:04:02.206Z,15.61
2023-10-28T16:06:30.881Z,15.40
2023-10-28T16:08:58.922Z,15.34
2023-10-28T16:11:26.873Z,15.22
2023-10-28T16:13:54.682Z,15.19
2023-10-28T16:16:23.035Z,15.18
2023-10-28T16:18:51.341Z,15.17
2023-10-28T16:21:18.851Z,15.24
2023-10-28T16:23:47.580Z,15.21
2023-10-28T16:26:15.587Z,15.17
2023-10-28T16:28:43.435Z,15.16
2023-10-28T16:31:11.645Z,15.13
2023-10-28T16:33:39.659Z,15.16
2023-10-28T16:36:07.847Z,15.07
2023-10-28T16:38:36.658Z,15.06
2023-10-28T16:41:04.927Z,14.89
2023-10-28T16:43:32.640Z,14.95
2023-10-28T16:46:01.390Z,14.93
2023-10-28T16:48:30.408Z,14.96
2023-10-28T16:51:00.833Z,14.95
2023-10-28T16:53:28.570Z,14.92
2023-10-28T16:56:10.634Z,14.87
2023-10-28T16:58:38.591Z,14.92
2023-10-28T17:01:09.450Z,14.72
2023-10-28T17:03:37.429Z,14.47
2023-10-28T17:06:06.691Z,14.39
2023-10-28T17:08:35.487Z,14.49
2023-10-28T17:11:04.557Z,14.58
2023-10-28T17:13:33.681Z,14.48
2023-10-28T17:16:04.465Z,14.45
2023-10-28T17:18:33.793Z,14.43
2023-10-28T17:21:06.958Z,14.49
2023-10-28T17:23:35.531Z,14.36
2023-10-28T17:26:06.564Z,14.42
2023-10-28T17:28:34.741Z,14.42
2023-10-28T17:31:04.894Z,14.33
2023-10-28T17:33:33.859Z,14.28
2023-10-28T17:36:02.813Z,14.21
2023-10-28T17:38:31.741Z,14.14
2023-10-28T17:41:10.658Z,14.17
2023-10-28T17:43:39.202Z,14.22
2023-10-28T17:46:10.523Z,14.20
2023-10-28T17:48:38.559Z,14.08
2023-10-28T17:51:13.883Z,13.97
2023-10-28T17:53:43.741Z,14.03
2023-10-28T17:56:11.811Z,14.06
2023-10-28T17:58:43.113Z,14.26
2023-10-28T18:01:12.653Z,14.29
2023-10-28T18:03:41.583Z,14.23
2023-10-28T18:06:09.830Z,14.16
2023-10-28T18:08:38.132Z,14.19
2023-10-28T18:11:06.422Z,14.19
2023-10-28T18:13:34.921Z,14.12
2023-10-28T18:16:03.024Z,14.14
2023-10-28T18:18:32.022Z,14.09
2023-10-28T18:21:00.505Z,14.08
2023-10-28T18:23:32.246Z,14.03
2023-10-28T18:26:01.238Z,14.20
2023-10-28T18:28:34.035Z,14.10
2023-10-28T18:31:05.824Z,14.05
2023-10-28T18:33:34.423Z,14.06
2023-10-28T18:36:07.434Z,13.90
2023-10-28T18:38:37.221Z,13.88
2023-10-28T18:41:12.671Z,13.89
2023-10-28T18:43:41.063Z,13.86
2023-10-28T18:46:09.821Z,13.92
2023-10-28T18:48:39.566Z,13.83
2023-10-28T18:51:08.937Z,13.84
2023-10-28T18:53:39.189Z,13.86
2023-10-28T18:56:10.973Z,13.83
2023-10-28T18:58:41.372Z,13.79
2023-10-28T19:01:14.506Z,13.72
2023-10-28T19:03:47.272Z,13.61
2023-10-28T19:06:17.690Z,13.57
2023-10-28T19:08:47.369Z,13.72
2023-10-28T19:11:16.519Z,13.67
2023-10-28T19:13:45.472Z,13.76
2023-10-28T19:16:13.965Z,13.70
2023-10-28T19:18:42.280Z,13.72
2023-10-28T19:21:10.997Z,13.71
2023-10-28T19:23:40.523Z,13.63
2023-10-28T19:26:08.886Z,13.62
2023-10-28T19:28:38.201Z,13.62
2023-10-28T19:31:07.185Z,13.59
2023-10-28T19:33:36.582Z,13.55
2023-10-28T19:36:07.616Z,13.53
2023-10-28T19:38:37.052Z,13.54
2023-10-28T19:41:06.397Z,13.59
2023-10-28T19:43:37.896Z,13.59
2023-10-28T19:46:10.088Z,13.57
2023-10-28T19:48:39.624Z,13.35
2023-10-28T19:51:08.184Z,13.34
2023-10-28T19:53:37.381Z,13.30
2023-10-28T19:56:08.041Z,13.39
2023-10-28T19:58:39.459Z,13.24
2023-10-28T20:01:09.980Z,13.19
2023-10-28T20:03:40.262Z,13.21
2023-10-28T20:06:09.671Z,13.13
2023-10-28T20:08:37.911Z,13.06
2023-10-28T20:11:07.466Z,13.08
2023-10-28T20:13:35.490Z,12.98
2023-10-28T20:16:03.571Z,13.03
2023-10-28T20:18:32.064Z,13.04
2023-10-28T20:21:00.502Z,12.97
2023-10-28T20:23:28.625Z,12.91
2023-10-28T20:25:57.694Z,12.91
2023-10-28T20:28:25.353Z,12.98
2023-10-28T20:30:52.941Z,12.94
2023-10-28T20:33:21.477Z,13.07
2023-10-28T20:35:53.302Z,13.00
2023-10-28T20:38:23.734Z,12.98
2023-10-28T20:40:51.846Z,12.99
2023-10-28T20:43:20.443Z,13.03
2023-10-28T20:45:50.351Z,13.05
2023-10-28T20:48:19.334Z,12.92
2023-10-28T20:50:51.103Z,12.87
2023-10-28T20:53:20.824Z,12.91
2023-10-28T20:55:48.792Z,12.92
2023-10-28T20:58:17.289Z,12.88
2023-10-28T21:00:45.593Z,12.95
2023-10-28T21:03:13.441Z,12.99
2023-10-28T21:05:40.951Z,12.90
2023-10-28T21:08:08.641Z,12.95
2023-10-28T21:10:36.154Z,12.94
2023-10-28T21:13:04.643Z,12.89
2023-10-28T21:15:33.259Z,12.95
2023-10-28T21:18:00.762Z,13.03
2023-10-28T21:20:28.459Z,12.94
2023-10-28T21:22:56.509Z,12.91
2023-10-28T21:25:29.929Z,12.96
2023-10-28T21:27:59.109Z,12.94
2023-10-28T21:30:26.580Z,12.84
2023-10-28T21:32:55.173Z,12.91
2023-10-28T21:35:23.166Z,12.91
2023-10-28T21:37:50.674Z,12.89
2023-10-28T21:40:20.040Z,12.93
2023-10-28T21:42:47.981Z,12.89
2023-10-28T21:45:15.355Z,12.97
2023-10-28T21:47:47.425Z,12.95
2023-10-28T21:50:15.214Z,12.90
2023-10-28T21:52:42.638Z,12.88
2023-10-28T21:55:10.193Z,12.96
2023-10-28T21:57:37.969Z,12.86
2023-10-28T22:00:07.014Z,12.89
2023-10-28T22:02:39.141Z,12.89
2023-10-28T22:05:07.047Z,13.05
2023-10-28T22:07:34.489Z,13.02
2023-10-28T22:10:02.351Z,13.04
2023-10-28T22:12:30.107Z,13.10
2023-10-28T22:14:57.584Z,13.06
2023-10-28T22:17:25.038Z,13.18
2023-10-28T22:19:52.752Z,13.12
2023-10-28T22:22:20.169Z,13.11
2023-10-28T22:24:47.714Z,13.09
2023-10-28T22:27:15.550Z,13.04
2023-10-28T22:29:42.988Z,13.13
2023-10-28T22:32:10.726Z,12.91
2023-10-28T22:34:38.398Z,13.19
2023-10-28T22:37:05.927Z,12.84
2023-10-28T22:39:33.397Z,13.11
2023-10-28T22:42:01.092Z,13.09
2023-10-28T22:44:29.129Z,13.04
2023-10-28T22:46:56.542Z,12.91
2023-10-28T22:49:24.393Z,13.00
2023-10-28T22:51:51.820Z,13.03
2023-10-28T22:54:19.325Z,13.04
2023-10-28T22:56:47.128Z,13.08
2023-10-28T22:59:14.550Z,13.11
2023-10-28T23:01:41.975Z,13.11
2023-10-28T23:04:10.137Z,12.93
2023-10-28T23:06:37.607Z,12.48
2023-10-28T23:09:05.070Z,12.44
2023-10-28T23:11:35.961Z,12.34
2023-10-28T23:14:03.832Z,12.63
2023-10-28T23:16:31.491Z,12.62
2023-10-28T23:18:59.213Z,12.72
2023-10-28T23:21:27.220Z,12.78
2023-10-28T23:23:54.953Z,12.73
2023-10-28T23:26:26.245Z,12.81
2023-10-28T23:28:53.789Z,12.79
2023-10-28T23:31:21.513Z,12.86
2023-10-28T23:33:49.202Z,12.82
2023-10-28T23:36:18.084Z,12.84
2023-10-28T23:38:46.116Z,12.84
2023-10-28T23:41:13.881Z,12.72
2023-10-28T23:43:41.304Z,12.79
2023-10-28T23:46:11.618Z,12.78
2023-10-28T23:48:40.080Z,12.92
2023-10-28T23:51:07.501Z,12.93
2023-10-28T23:53:34.928Z,12.89
2023-10-28T23:56:02.761Z,12.86
2023-10-28T23:58:30.527Z,12.79
